Аэропорт: Кызылорда. Кызылорда

ICAO: UAOO

METAR:
2019-09-21 16:00:00
UAOO 211600Z 13002MPS CAVOK 23/04 Q1006 NOSIG RMK QFE743/0990
METAR:
2019-09-21 14:00:00
TAF UAOO 211400Z 2115/2124 VRB01MPS CAVOK